^^
LKKV - Karlovy Vary, Czech Republic
Entfernung von Station: O 36km
Aktualisierung: 19.04.2019 20:30
Klar
Klar
 Wind von O
Wind: O 9 km/h
Temperatur: 14°C
Taupunkt: -3°C
Luftfeuchte: 31%
Luftdruck: 1030 hPa
Zusammenfassung: Klar
Sicht: mehr als 10 km
2019/04/19 18:30 LKKV 191830Z 08005KT CAVOK 14/M03 Q1030
EDQM - Hof, Germany
Entfernung von Station: W 40km
Aktualisierung: 19.04.2019 18:50
nicht aktuell
Klar
Klar
 Wind von O
Wind: O 17 km/h
Temperatur: 18°C
Taupunkt: 1°C
Luftfeuchte: 32%
Luftdruck: 1029 hPa
Zusammenfassung: Klar
Sicht: mehr als 10 km
2019/04/19 16:50 EDQM 191650Z 09009KT CAVOK 18/01 Q1029
 
ETIC - Grafenwoehr, Germany
Entfernung von Station: SSW 72km
Aktualisierung: 19.04.2019 19:56
Klar
Klar
 Wind von ONO
Wind: ONO 7 km/h
Temperatur: 18°C
Taupunkt: 0°C
Luftfeuchte: 30%
Luftdruck: 1028.1 hPa
Wolken: Klar
Sicht: 10 km
2019/04/19 17:56 ETIC 191756Z AUTO 06004KT 9999 CLR 18/00 A3036 RMK AO2 SLP281 T01771001 10221 20177 53001 $
EDAC - Altenburg-Nobitz, Germany
Entfernung von Station: N 80km
Aktualisierung: 19.04.2019 20:20
Klar
Klar
 Wind von ONO
Wind: ONO 7 km/h
Temperatur: 18°C
Taupunkt: 1°C
Luftfeuchte: 32%
Luftdruck: 1030 hPa
Wolken: Klar
Sicht: 10 km
2019/04/19 18:20 EDAC 191820Z AUTO 06004KT 9999 // NCD 18/01 Q1030
 
LKLN - Plzen Line, Czech Republic
Entfernung von Station: SO 88km
Aktualisierung: 19.04.2019 20:00
Klar
Klar
 Wind von ONO
Wind: ONO 11 km/h
Temperatur: 17°C
Taupunkt: 1°C
Luftfeuchte: 34%
Luftdruck: 1029 hPa
Zusammenfassung: Klar
Sicht: mehr als 10 km
2019/04/19 18:00 LKLN 191800Z AUTO 06006KT CAVOK 17/01 Q1029
ETIH - Hohenfels (usa-A, Germany
Entfernung von Station: SSW 124km
Aktualisierung: 19.04.2019 19:56
Klar
Klar
 Wind von ONO
Wind: ONO 9 km/h
Temperatur: 19°C
Taupunkt: 5°C
Luftfeuchte: 40%
Luftdruck: 1028.1 hPa
Wolken: Klar
Sicht: 10 km
2019/04/19 17:56 ETIH 191756Z AUTO 06005KT 9999 CLR 19/05 A3036 RMK AO2 SLP284 T01890046 10224 20189 53004 $
 
EDDE - Erfurt/Bindersleben, Germany
Entfernung von Station: NW 129km
Aktualisierung: 19.04.2019 20:20
Klar
Klar
 Wind von ONO
Wind: ONO 13 km/h
Temperatur: 16°C
Taupunkt: 3°C
Luftfeuchte: 42%
Luftdruck: 1030 hPa
Zusammenfassung: Klar
Sicht: mehr als 10 km
2019/04/19 18:20 EDDE 191820Z 07007KT CAVOK 16/03 Q1030 NOSIG
EDDP - Leipzig/Schkeudidtz, Germany
Entfernung von Station: N 129km
Aktualisierung: 19.04.2019 20:20
Klar
Klar
 Wind von NO
Wind: NO 13 km/h
Temperatur: 16°C
Taupunkt: 3°C
Luftfeuchte: 42%
Luftdruck: 1030 hPa
Zusammenfassung: Klar
Sicht: mehr als 10 km
2019/04/19 18:20 EDDP 191820Z 05007KT CAVOK 16/03 Q1030 NOSIG
 
EDDN - Nuernberg, Germany
Entfernung von Station: SW 130km
Aktualisierung: 19.04.2019 20:20
Klar
Klar
 Wind von ONO
Wind: ONO 11 km/h
Temperatur: 19°C
Taupunkt: 2°C
Luftfeuchte: 32%
Luftdruck: 1027 hPa
Zusammenfassung: Klar
Sicht: mehr als 10 km
2019/04/19 18:20 EDDN 191820Z 07006KT CAVOK 19/02 Q1027 NOSIG
LKPR - Prague/Ruzyne, Czech Republic
Entfernung von Station: O 133km
Aktualisierung: 19.04.2019 20:30
Klar
Klar
 Wind von O
Wind: O 9 km/h
Temperatur: 15°C
Taupunkt: -1°C
Luftfeuchte: 34%
Luftdruck: 1030 hPa
Zusammenfassung: Klar
Sicht: mehr als 10 km
2019/04/19 18:30 LKPR 191830Z 10005KT CAVOK 15/M01 Q1030 NOSIG
 
EDDC - Dresden/Klotzsche, Germany
Entfernung von Station: NO 134km
Aktualisierung: 19.04.2019 20:20
Klar
Klar
 Wind von O
Wind: O 11 km/h
Temperatur: 17°C
Taupunkt: -1°C
Luftfeuchte: 30%
Luftdruck: 1030 hPa
Zusammenfassung: Klar
Sicht: mehr als 10 km
2019/04/19 18:20 EDDC 191820Z 08006KT CAVOK 17/M01 Q1030 NOSIG
Besucherstatistik
Besucher gesamt: 1.852.648
Besucher heute: 3.868
Besucher gestern: 4.612
gerade online: 62
Seitenaufrufe diese Seite: 4.303
counter Statistiken